sensor_id;sensor_type;location;lat;lon;timestamp;P1;durP1;ratioP1;P2;durP2;ratioP2
41468;SDS011;27206;47.032;15.484;2023-07-30T00:01:38;53.38;;;50.70;;
41468;SDS011;27206;47.032;15.484;2023-07-30T00:04:04;60.00;;;57.20;;
41468;SDS011;27206;47.032;15.484;2023-07-30T00:06:30;57.97;;;55.22;;
41468;SDS011;27206;47.032;15.484;2023-07-30T00:08:56;63.17;;;60.08;;
41468;SDS011;27206;47.032;15.484;2023-07-30T00:11:21;57.22;;;54.50;;
41468;SDS011;27206;47.032;15.484;2023-07-30T00:13:47;53.45;;;50.83;;
41468;SDS011;27206;47.032;15.484;2023-07-30T00:16:13;4.03;;;1.30;;
41468;SDS011;27206;47.032;15.484;2023-07-30T00:18:39;4.20;;;1.35;;
41468;SDS011;27206;47.032;15.484;2023-07-30T00:21:04;4.28;;;1.50;;
41468;SDS011;27206;47.032;15.484;2023-07-30T00:23:30;2.60;;;1.20;;
41468;SDS011;27206;47.032;15.484;2023-07-30T00:25:55;2.70;;;1.48;;
41468;SDS011;27206;47.032;15.484;2023-07-30T00:28:21;3.33;;;1.50;;
41468;SDS011;27206;47.032;15.484;2023-07-30T00:30:47;4.78;;;1.80;;
41468;SDS011;27206;47.032;15.484;2023-07-30T00:33:12;4.03;;;1.48;;
41468;SDS011;27206;47.032;15.484;2023-07-30T00:35:38;2.90;;;1.30;;
41468;SDS011;27206;47.032;15.484;2023-07-30T00:38:03;3.45;;;1.50;;
41468;SDS011;27206;47.032;15.484;2023-07-30T00:40:29;3.92;;;1.40;;
41468;SDS011;27206;47.032;15.484;2023-07-30T00:42:55;3.83;;;1.42;;
41468;SDS011;27206;47.032;15.484;2023-07-30T00:45:20;3.22;;;1.35;;
41468;SDS011;27206;47.032;15.484;2023-07-30T00:47:46;2.72;;;1.38;;
41468;SDS011;27206;47.032;15.484;2023-07-30T00:50:13;2.95;;;1.48;;
41468;SDS011;27206;47.032;15.484;2023-07-30T00:52:40;3.15;;;1.40;;
41468;SDS011;27206;47.032;15.484;2023-07-30T00:55:06;4.63;;;1.42;;
41468;SDS011;27206;47.032;15.484;2023-07-30T00:57:32;2.92;;;1.50;;
41468;SDS011;27206;47.032;15.484;2023-07-30T01:00:01;4.78;;;1.90;;
41468;SDS011;27206;47.032;15.484;2023-07-30T01:02:29;2.97;;;1.30;;
41468;SDS011;27206;47.032;15.484;2023-07-30T01:04:56;4.85;;;1.55;;
41468;SDS011;27206;47.032;15.484;2023-07-30T01:07:24;3.58;;;1.70;;
41468;SDS011;27206;47.032;15.484;2023-07-30T01:09:50;4.80;;;1.70;;
41468;SDS011;27206;47.032;15.484;2023-07-30T01:12:16;8.77;;;1.67;;
41468;SDS011;27206;47.032;15.484;2023-07-30T01:14:42;4.22;;;1.50;;
41468;SDS011;27206;47.032;15.484;2023-07-30T01:17:10;3.15;;;1.60;;
41468;SDS011;27206;47.032;15.484;2023-07-30T01:19:37;2.80;;;1.50;;
41468;SDS011;27206;47.032;15.484;2023-07-30T01:22:03;3.95;;;1.52;;
41468;SDS011;27206;47.032;15.484;2023-07-30T01:24:28;4.88;;;1.95;;
41468;SDS011;27206;47.032;15.484;2023-07-30T01:27:04;7.32;;;1.80;;
41468;SDS011;27206;47.032;15.484;2023-07-30T01:29:40;3.65;;;1.70;;
41468;SDS011;27206;47.032;15.484;2023-07-30T01:32:11;3.22;;;1.60;;
41468;SDS011;27206;47.032;15.484;2023-07-30T01:34:37;3.45;;;1.75;;
41468;SDS011;27206;47.032;15.484;2023-07-30T01:37:05;6.68;;;2.50;;
41468;SDS011;27206;47.032;15.484;2023-07-30T01:39:35;3.85;;;1.92;;
41468;SDS011;27206;47.032;15.484;2023-07-30T01:42:03;3.40;;;1.60;;
41468;SDS011;27206;47.032;15.484;2023-07-30T01:44:29;5.03;;;1.80;;
41468;SDS011;27206;47.032;15.484;2023-07-30T01:46:55;4.93;;;1.60;;
41468;SDS011;27206;47.032;15.484;2023-07-30T01:49:20;3.65;;;2.25;;
41468;SDS011;27206;47.032;15.484;2023-07-30T01:51:46;2.92;;;1.70;;
41468;SDS011;27206;47.032;15.484;2023-07-30T01:54:12;3.17;;;1.40;;
41468;SDS011;27206;47.032;15.484;2023-07-30T01:56:38;4.07;;;2.00;;
41468;SDS011;27206;47.032;15.484;2023-07-30T01:59:04;4.35;;;1.83;;
41468;SDS011;27206;47.032;15.484;2023-07-30T02:01:30;4.28;;;1.80;;
41468;SDS011;27206;47.032;15.484;2023-07-30T02:03:55;3.03;;;1.80;;
41468;SDS011;27206;47.032;15.484;2023-07-30T02:06:21;4.38;;;2.10;;
41468;SDS011;27206;47.032;15.484;2023-07-30T02:08:47;3.88;;;1.80;;
41468;SDS011;27206;47.032;15.484;2023-07-30T02:11:13;2.88;;;1.70;;
41468;SDS011;27206;47.032;15.484;2023-07-30T02:13:38;4.53;;;1.98;;
41468;SDS011;27206;47.032;15.484;2023-07-30T02:16:04;3.28;;;1.70;;
41468;SDS011;27206;47.032;15.484;2023-07-30T02:18:29;3.53;;;1.80;;
41468;SDS011;27206;47.032;15.484;2023-07-30T02:20:55;6.13;;;1.88;;
41468;SDS011;27206;47.032;15.484;2023-07-30T02:23:21;3.70;;;1.88;;
41468;SDS011;27206;47.032;15.484;2023-07-30T02:25:46;5.65;;;1.98;;
41468;SDS011;27206;47.032;15.484;2023-07-30T02:28:12;6.22;;;1.90;;
41468;SDS011;27206;47.032;15.484;2023-07-30T02:30:37;3.10;;;1.77;;
41468;SDS011;27206;47.032;15.484;2023-07-30T02:33:03;4.05;;;1.40;;
41468;SDS011;27206;47.032;15.484;2023-07-30T02:35:29;3.08;;;1.80;;
41468;SDS011;27206;47.032;15.484;2023-07-30T02:37:54;4.22;;;1.85;;
41468;SDS011;27206;47.032;15.484;2023-07-30T02:40:20;3.85;;;1.92;;
41468;SDS011;27206;47.032;15.484;2023-07-30T02:42:45;4.05;;;2.10;;
41468;SDS011;27206;47.032;15.484;2023-07-30T02:45:11;6.03;;;1.63;;
41468;SDS011;27206;47.032;15.484;2023-07-30T02:47:37;3.75;;;1.48;;
41468;SDS011;27206;47.032;15.484;2023-07-30T02:50:03;3.17;;;1.88;;
41468;SDS011;27206;47.032;15.484;2023-07-30T02:52:30;2.45;;;1.60;;
41468;SDS011;27206;47.032;15.484;2023-07-30T02:54:56;3.22;;;1.88;;
41468;SDS011;27206;47.032;15.484;2023-07-30T02:57:22;3.60;;;1.52;;
41468;SDS011;27206;47.032;15.484;2023-07-30T02:59:47;3.30;;;1.80;;
41468;SDS011;27206;47.032;15.484;2023-07-30T03:02:13;3.05;;;1.63;;
41468;SDS011;27206;47.032;15.484;2023-07-30T03:04:39;6.63;;;1.70;;
41468;SDS011;27206;47.032;15.484;2023-07-30T03:07:04;4.13;;;1.80;;
41468;SDS011;27206;47.032;15.484;2023-07-30T03:09:30;3.72;;;1.63;;
41468;SDS011;27206;47.032;15.484;2023-07-30T03:11:56;3.47;;;1.80;;
41468;SDS011;27206;47.032;15.484;2023-07-30T03:14:21;2.70;;;1.65;;
41468;SDS011;27206;47.032;15.484;2023-07-30T03:16:47;4.03;;;1.60;;
41468;SDS011;27206;47.032;15.484;2023-07-30T03:19:13;3.03;;;1.55;;
41468;SDS011;27206;47.032;15.484;2023-07-30T03:21:39;4.82;;;1.90;;
41468;SDS011;27206;47.032;15.484;2023-07-30T03:24:05;3.03;;;1.88;;
41468;SDS011;27206;47.032;15.484;2023-07-30T03:26:30;5.85;;;1.90;;
41468;SDS011;27206;47.032;15.484;2023-07-30T03:28:56;3.60;;;1.80;;
41468;SDS011;27206;47.032;15.484;2023-07-30T03:31:22;5.68;;;2.15;;
41468;SDS011;27206;47.032;15.484;2023-07-30T03:33:47;4.13;;;1.88;;
41468;SDS011;27206;47.032;15.484;2023-07-30T03:36:13;5.40;;;2.08;;
41468;SDS011;27206;47.032;15.484;2023-07-30T03:38:39;5.50;;;2.00;;
41468;SDS011;27206;47.032;15.484;2023-07-30T03:41:05;4.75;;;1.80;;
41468;SDS011;27206;47.032;15.484;2023-07-30T03:43:32;5.10;;;2.10;;
41468;SDS011;27206;47.032;15.484;2023-07-30T03:45:58;4.22;;;2.08;;
41468;SDS011;27206;47.032;15.484;2023-07-30T03:48:24;3.78;;;1.80;;
41468;SDS011;27206;47.032;15.484;2023-07-30T03:50:49;3.67;;;2.17;;
41468;SDS011;27206;47.032;15.484;2023-07-30T03:53:15;4.65;;;2.60;;
41468;SDS011;27206;47.032;15.484;2023-07-30T03:55:40;4.43;;;2.40;;
41468;SDS011;27206;47.032;15.484;2023-07-30T03:58:06;4.40;;;2.40;;
41468;SDS011;27206;47.032;15.484;2023-07-30T04:00:33;5.07;;;2.53;;
41468;SDS011;27206;47.032;15.484;2023-07-30T04:02:58;3.70;;;1.98;;
41468;SDS011;27206;47.032;15.484;2023-07-30T04:05:24;3.40;;;2.30;;
41468;SDS011;27206;47.032;15.484;2023-07-30T04:07:50;5.50;;;2.60;;
41468;SDS011;27206;47.032;15.484;2023-07-30T04:10:15;4.93;;;1.80;;
41468;SDS011;27206;47.032;15.484;2023-07-30T04:12:41;5.28;;;1.95;;
41468;SDS011;27206;47.032;15.484;2023-07-30T04:15:07;5.28;;;2.10;;
41468;SDS011;27206;47.032;15.484;2023-07-30T04:17:34;4.38;;;2.00;;
41468;SDS011;27206;47.032;15.484;2023-07-30T04:20:01;4.00;;;1.85;;
41468;SDS011;27206;47.032;15.484;2023-07-30T04:22:27;3.58;;;1.80;;
41468;SDS011;27206;47.032;15.484;2023-07-30T04:24:52;4.32;;;2.08;;
41468;SDS011;27206;47.032;15.484;2023-07-30T04:27:18;3.50;;;2.10;;
41468;SDS011;27206;47.032;15.484;2023-07-30T04:29:43;4.20;;;2.05;;
41468;SDS011;27206;47.032;15.484;2023-07-30T04:32:09;4.40;;;2.40;;
41468;SDS011;27206;47.032;15.484;2023-07-30T04:34:35;4.50;;;2.22;;
41468;SDS011;27206;47.032;15.484;2023-07-30T04:37:00;4.30;;;2.25;;
41468;SDS011;27206;47.032;15.484;2023-07-30T04:39:27;3.75;;;2.20;;
41468;SDS011;27206;47.032;15.484;2023-07-30T04:41:55;3.90;;;2.47;;
41468;SDS011;27206;47.032;15.484;2023-07-30T04:44:20;3.17;;;1.90;;
41468;SDS011;27206;47.032;15.484;2023-07-30T04:46:46;5.15;;;2.20;;
41468;SDS011;27206;47.032;15.484;2023-07-30T04:49:12;5.63;;;2.40;;
41468;SDS011;27206;47.032;15.484;2023-07-30T04:51:37;4.43;;;2.35;;
41468;SDS011;27206;47.032;15.484;2023-07-30T04:54:03;3.70;;;1.95;;
41468;SDS011;27206;47.032;15.484;2023-07-30T04:56:29;3.85;;;2.05;;
41468;SDS011;27206;47.032;15.484;2023-07-30T04:58:54;3.38;;;2.03;;
41468;SDS011;27206;47.032;15.484;2023-07-30T05:01:20;3.50;;;2.03;;
41468;SDS011;27206;47.032;15.484;2023-07-30T05:03:46;6.57;;;2.47;;
41468;SDS011;27206;47.032;15.484;2023-07-30T05:06:11;3.72;;;2.13;;
41468;SDS011;27206;47.032;15.484;2023-07-30T05:08:37;3.35;;;2.13;;
41468;SDS011;27206;47.032;15.484;2023-07-30T05:11:02;4.53;;;2.38;;
41468;SDS011;27206;47.032;15.484;2023-07-30T05:13:28;4.28;;;2.15;;
41468;SDS011;27206;47.032;15.484;2023-07-30T05:15:54;3.15;;;2.05;;
41468;SDS011;27206;47.032;15.484;2023-07-30T05:18:19;3.25;;;2.10;;
41468;SDS011;27206;47.032;15.484;2023-07-30T05:20:45;4.40;;;2.33;;
41468;SDS011;27206;47.032;15.484;2023-07-30T05:23:11;3.40;;;2.13;;
41468;SDS011;27206;47.032;15.484;2023-07-30T05:25:37;3.70;;;2.10;;
41468;SDS011;27206;47.032;15.484;2023-07-30T05:28:03;5.22;;;2.28;;
41468;SDS011;27206;47.032;15.484;2023-07-30T05:30:28;4.43;;;1.98;;
41468;SDS011;27206;47.032;15.484;2023-07-30T05:32:54;4.57;;;2.33;;
41468;SDS011;27206;47.032;15.484;2023-07-30T05:35:20;3.60;;;2.20;;
41468;SDS011;27206;47.032;15.484;2023-07-30T05:37:46;4.20;;;2.22;;
41468;SDS011;27206;47.032;15.484;2023-07-30T05:40:12;3.95;;;1.92;;
41468;SDS011;27206;47.032;15.484;2023-07-30T05:42:38;3.65;;;2.30;;
41468;SDS011;27206;47.032;15.484;2023-07-30T05:45:03;4.35;;;2.03;;
41468;SDS011;27206;47.032;15.484;2023-07-30T05:47:29;3.53;;;2.35;;
41468;SDS011;27206;47.032;15.484;2023-07-30T05:49:55;4.47;;;2.20;;
41468;SDS011;27206;47.032;15.484;2023-07-30T05:52:20;3.50;;;2.00;;
41468;SDS011;27206;47.032;15.484;2023-07-30T05:54:46;4.55;;;2.30;;
41468;SDS011;27206;47.032;15.484;2023-07-30T05:57:12;6.32;;;2.38;;
41468;SDS011;27206;47.032;15.484;2023-07-30T05:59:37;3.40;;;2.05;;
41468;SDS011;27206;47.032;15.484;2023-07-30T06:02:03;5.32;;;2.20;;
41468;SDS011;27206;47.032;15.484;2023-07-30T06:04:29;3.78;;;2.20;;
41468;SDS011;27206;47.032;15.484;2023-07-30T06:06:55;6.15;;;2.47;;
41468;SDS011;27206;47.032;15.484;2023-07-30T06:09:20;4.90;;;2.22;;
41468;SDS011;27206;47.032;15.484;2023-07-30T06:11:46;4.55;;;2.78;;
41468;SDS011;27206;47.032;15.484;2023-07-30T06:14:12;5.57;;;2.60;;
41468;SDS011;27206;47.032;15.484;2023-07-30T06:16:37;4.63;;;2.40;;
41468;SDS011;27206;47.032;15.484;2023-07-30T06:19:03;5.18;;;2.60;;
41468;SDS011;27206;47.032;15.484;2023-07-30T06:21:28;6.25;;;2.88;;
41468;SDS011;27206;47.032;15.484;2023-07-30T06:23:54;4.45;;;2.75;;
41468;SDS011;27206;47.032;15.484;2023-07-30T06:26:19;3.72;;;2.42;;
41468;SDS011;27206;47.032;15.484;2023-07-30T06:28:45;4.95;;;2.30;;
41468;SDS011;27206;47.032;15.484;2023-07-30T06:31:11;3.10;;;1.80;;
41468;SDS011;27206;47.032;15.484;2023-07-30T06:33:36;3.70;;;2.08;;
41468;SDS011;27206;47.032;15.484;2023-07-30T06:36:03;3.13;;;1.75;;
41468;SDS011;27206;47.032;15.484;2023-07-30T06:38:29;3.67;;;2.10;;
41468;SDS011;27206;47.032;15.484;2023-07-30T06:40:54;3.42;;;2.00;;
41468;SDS011;27206;47.032;15.484;2023-07-30T06:43:22;4.95;;;1.88;;
41468;SDS011;27206;47.032;15.484;2023-07-30T06:45:48;3.10;;;1.83;;
41468;SDS011;27206;47.032;15.484;2023-07-30T06:48:14;3.38;;;2.00;;
41468;SDS011;27206;47.032;15.484;2023-07-30T06:50:41;2.80;;;1.70;;
41468;SDS011;27206;47.032;15.484;2023-07-30T06:53:06;4.38;;;2.28;;
41468;SDS011;27206;47.032;15.484;2023-07-30T06:55:32;6.45;;;2.13;;
41468;SDS011;27206;47.032;15.484;2023-07-30T06:57:58;3.40;;;1.88;;
41468;SDS011;27206;47.032;15.484;2023-07-30T07:00:24;3.38;;;1.80;;
41468;SDS011;27206;47.032;15.484;2023-07-30T07:02:49;2.72;;;1.60;;
41468;SDS011;27206;47.032;15.484;2023-07-30T07:05:15;3.28;;;1.92;;
41468;SDS011;27206;47.032;15.484;2023-07-30T07:07:41;3.65;;;1.70;;
41468;SDS011;27206;47.032;15.484;2023-07-30T07:10:07;3.90;;;1.77;;
41468;SDS011;27206;47.032;15.484;2023-07-30T07:12:35;4.28;;;1.90;;
41468;SDS011;27206;47.032;15.484;2023-07-30T07:15:02;4.45;;;1.88;;
41468;SDS011;27206;47.032;15.484;2023-07-30T07:17:28;2.88;;;1.85;;
41468;SDS011;27206;47.032;15.484;2023-07-30T07:19:54;3.28;;;1.70;;
41468;SDS011;27206;47.032;15.484;2023-07-30T07:22:20;5.30;;;1.92;;
41468;SDS011;27206;47.032;15.484;2023-07-30T07:24:45;3.55;;;1.83;;
41468;SDS011;27206;47.032;15.484;2023-07-30T07:27:11;2.42;;;1.63;;
41468;SDS011;27206;47.032;15.484;2023-07-30T07:29:37;3.65;;;1.90;;
41468;SDS011;27206;47.032;15.484;2023-07-30T07:32:03;2.80;;;1.63;;
41468;SDS011;27206;47.032;15.484;2023-07-30T07:34:28;3.83;;;1.83;;
41468;SDS011;27206;47.032;15.484;2023-07-30T07:36:54;4.03;;;2.03;;
41468;SDS011;27206;47.032;15.484;2023-07-30T07:39:20;5.45;;;1.77;;
41468;SDS011;27206;47.032;15.484;2023-07-30T07:41:45;5.32;;;1.80;;
41468;SDS011;27206;47.032;15.484;2023-07-30T07:44:11;3.10;;;1.90;;
41468;SDS011;27206;47.032;15.484;2023-07-30T07:46:37;5.20;;;2.13;;
41468;SDS011;27206;47.032;15.484;2023-07-30T07:49:02;3.28;;;1.90;;
41468;SDS011;27206;47.032;15.484;2023-07-30T07:51:28;3.47;;;1.90;;
41468;SDS011;27206;47.032;15.484;2023-07-30T07:53:54;4.05;;;1.90;;
41468;SDS011;27206;47.032;15.484;2023-07-30T07:56:19;4.22;;;2.08;;
41468;SDS011;27206;47.032;15.484;2023-07-30T07:58:45;4.25;;;1.90;;
41468;SDS011;27206;47.032;15.484;2023-07-30T08:01:11;3.45;;;2.20;;
41468;SDS011;27206;47.032;15.484;2023-07-30T08:03:36;3.28;;;2.03;;
41468;SDS011;27206;47.032;15.484;2023-07-30T08:06:02;4.85;;;2.25;;
41468;SDS011;27206;47.032;15.484;2023-07-30T08:08:28;3.35;;;1.90;;
41468;SDS011;27206;47.032;15.484;2023-07-30T08:10:53;3.85;;;1.83;;
41468;SDS011;27206;47.032;15.484;2023-07-30T08:13:19;4.45;;;1.95;;
41468;SDS011;27206;47.032;15.484;2023-07-30T08:15:45;2.75;;;1.85;;
41468;SDS011;27206;47.032;15.484;2023-07-30T08:18:11;3.17;;;1.75;;
41468;SDS011;27206;47.032;15.484;2023-07-30T08:20:37;3.33;;;1.95;;
41468;SDS011;27206;47.032;15.484;2023-07-30T08:23:03;3.25;;;1.67;;
41468;SDS011;27206;47.032;15.484;2023-07-30T08:25:29;5.95;;;1.65;;
41468;SDS011;27206;47.032;15.484;2023-07-30T08:27:54;3.53;;;1.73;;
41468;SDS011;27206;47.032;15.484;2023-07-30T08:30:20;2.45;;;1.55;;
41468;SDS011;27206;47.032;15.484;2023-07-30T08:32:46;4.25;;;1.80;;
41468;SDS011;27206;47.032;15.484;2023-07-30T08:35:11;3.47;;;1.70;;
41468;SDS011;27206;47.032;15.484;2023-07-30T08:37:37;3.00;;;1.65;;
41468;SDS011;27206;47.032;15.484;2023-07-30T08:40:03;3.30;;;1.70;;
41468;SDS011;27206;47.032;15.484;2023-07-30T08:42:29;3.90;;;1.60;;
41468;SDS011;27206;47.032;15.484;2023-07-30T08:44:55;5.50;;;1.77;;
41468;SDS011;27206;47.032;15.484;2023-07-30T08:47:20;3.38;;;1.70;;
41468;SDS011;27206;47.032;15.484;2023-07-30T08:49:46;3.60;;;1.50;;
41468;SDS011;27206;47.032;15.484;2023-07-30T08:52:12;3.08;;;1.58;;
41468;SDS011;27206;47.032;15.484;2023-07-30T08:54:38;2.08;;;1.27;;
41468;SDS011;27206;47.032;15.484;2023-07-30T08:57:06;2.20;;;1.10;;
41468;SDS011;27206;47.032;15.484;2023-07-30T08:59:33;3.70;;;1.13;;
41468;SDS011;27206;47.032;15.484;2023-07-30T09:04:34;1.85;;;0.90;;
41468;SDS011;27206;47.032;15.484;2023-07-30T09:07:02;3.53;;;1.20;;
41468;SDS011;27206;47.032;15.484;2023-07-30T09:09:28;2.45;;;1.42;;
41468;SDS011;27206;47.032;15.484;2023-07-30T09:11:54;2.78;;;1.10;;
41468;SDS011;27206;47.032;15.484;2023-07-30T09:14:20;2.20;;;1.10;;
41468;SDS011;27206;47.032;15.484;2023-07-30T09:16:46;2.45;;;1.10;;
41468;SDS011;27206;47.032;15.484;2023-07-30T09:19:18;1.70;;;1.02;;
41468;SDS011;27206;47.032;15.484;2023-07-30T09:21:44;2.33;;;1.13;;
41468;SDS011;27206;47.032;15.484;2023-07-30T09:24:10;2.50;;;0.93;;
41468;SDS011;27206;47.032;15.484;2023-07-30T09:26:39;1.38;;;0.90;;
41468;SDS011;27206;47.032;15.484;2023-07-30T09:29:09;2.47;;;0.90;;
41468;SDS011;27206;47.032;15.484;2023-07-30T09:31:49;2.05;;;1.20;;
41468;SDS011;27206;47.032;15.484;2023-07-30T09:34:22;2.28;;;0.90;;
41468;SDS011;27206;47.032;15.484;2023-07-30T09:36:52;2.42;;;1.08;;
41468;SDS011;27206;47.032;15.484;2023-07-30T09:41:51;1.20;;;0.80;;
41468;SDS011;27206;47.032;15.484;2023-07-30T09:44:19;1.95;;;0.80;;
41468;SDS011;27206;47.032;15.484;2023-07-30T09:46:46;3.20;;;1.73;;
41468;SDS011;27206;47.032;15.484;2023-07-30T09:49:14;2.13;;;1.00;;
41468;SDS011;27206;47.032;15.484;2023-07-30T09:51:40;1.52;;;1.02;;
41468;SDS011;27206;47.032;15.484;2023-07-30T09:54:07;1.60;;;0.90;;
41468;SDS011;27206;47.032;15.484;2023-07-30T09:56:34;1.52;;;0.98;;
41468;SDS011;27206;47.032;15.484;2023-07-30T09:59:01;1.45;;;0.80;;
41468;SDS011;27206;47.032;15.484;2023-07-30T10:01:26;1.45;;;0.80;;
41468;SDS011;27206;47.032;15.484;2023-07-30T10:03:55;2.30;;;1.00;;
41468;SDS011;27206;47.032;15.484;2023-07-30T10:06:23;1.35;;;0.90;;
41468;SDS011;27206;47.032;15.484;2023-07-30T10:08:52;1.73;;;0.95;;
41468;SDS011;27206;47.032;15.484;2023-07-30T10:11:20;1.60;;;0.90;;
41468;SDS011;27206;47.032;15.484;2023-07-30T10:13:47;1.40;;;0.90;;
41468;SDS011;27206;47.032;15.484;2023-07-30T10:16:13;1.95;;;0.95;;
41468;SDS011;27206;47.032;15.484;2023-07-30T10:18:39;1.45;;;0.85;;
41468;SDS011;27206;47.032;15.484;2023-07-30T10:21:08;1.35;;;0.80;;
41468;SDS011;27206;47.032;15.484;2023-07-30T10:23:35;1.35;;;0.85;;
41468;SDS011;27206;47.032;15.484;2023-07-30T10:26:10;1.45;;;0.82;;
41468;SDS011;27206;47.032;15.484;2023-07-30T10:28:36;1.40;;;0.80;;
41468;SDS011;27206;47.032;15.484;2023-07-30T10:31:05;1.42;;;0.75;;
41468;SDS011;27206;47.032;15.484;2023-07-30T10:33:43;1.83;;;0.90;;
41468;SDS011;27206;47.032;15.484;2023-07-30T10:36:18;2.65;;;0.80;;
41468;SDS011;27206;47.032;15.484;2023-07-30T10:39:13;1.30;;;0.70;;
41468;SDS011;27206;47.032;15.484;2023-07-30T10:41:42;2.72;;;0.90;;
41468;SDS011;27206;47.032;15.484;2023-07-30T10:44:21;2.15;;;1.30;;
41468;SDS011;27206;47.032;15.484;2023-07-30T10:46:55;2.40;;;1.50;;
41468;SDS011;27206;47.032;15.484;2023-07-30T10:49:22;1.30;;;0.80;;
41468;SDS011;27206;47.032;15.484;2023-07-30T10:51:48;1.02;;;0.68;;
41468;SDS011;27206;47.032;15.484;2023-07-30T10:54:16;1.50;;;0.90;;
41468;SDS011;27206;47.032;15.484;2023-07-30T10:56:41;1.08;;;0.80;;
41468;SDS011;27206;47.032;15.484;2023-07-30T10:59:08;1.35;;;0.65;;
41468;SDS011;27206;47.032;15.484;2023-07-30T11:01:38;1.67;;;0.70;;
41468;SDS011;27206;47.032;15.484;2023-07-30T11:04:09;1.08;;;0.60;;
41468;SDS011;27206;47.032;15.484;2023-07-30T11:06:36;1.60;;;0.70;;
41468;SDS011;27206;47.032;15.484;2023-07-30T11:09:02;0.90;;;0.60;;
41468;SDS011;27206;47.032;15.484;2023-07-30T11:11:27;2.28;;;0.70;;
41468;SDS011;27206;47.032;15.484;2023-07-30T11:13:53;1.17;;;0.85;;
41468;SDS011;27206;47.032;15.484;2023-07-30T11:16:19;1.20;;;0.70;;
41468;SDS011;27206;47.032;15.484;2023-07-30T11:18:45;1.00;;;0.70;;
41468;SDS011;27206;47.032;15.484;2023-07-30T11:21:16;1.45;;;0.60;;
41468;SDS011;27206;47.032;15.484;2023-07-30T11:23:43;1.30;;;0.70;;
41468;SDS011;27206;47.032;15.484;2023-07-30T11:26:16;1.05;;;0.70;;
41468;SDS011;27206;47.032;15.484;2023-07-30T11:28:44;1.40;;;0.70;;
41468;SDS011;27206;47.032;15.484;2023-07-30T11:31:11;2.05;;;0.88;;
41468;SDS011;27206;47.032;15.484;2023-07-30T11:33:42;1.00;;;0.70;;
41468;SDS011;27206;47.032;15.484;2023-07-30T11:36:10;1.98;;;1.20;;
41468;SDS011;27206;47.032;15.484;2023-07-30T11:38:39;1.13;;;0.75;;
41468;SDS011;27206;47.032;15.484;2023-07-30T11:41:06;1.08;;;0.70;;
41468;SDS011;27206;47.032;15.484;2023-07-30T11:43:35;1.60;;;0.90;;
41468;SDS011;27206;47.032;15.484;2023-07-30T11:46:10;1.25;;;0.77;;
41468;SDS011;27206;47.032;15.484;2023-07-30T11:48:41;1.25;;;0.90;;
41468;SDS011;27206;47.032;15.484;2023-07-30T11:51:18;1.30;;;0.80;;
41468;SDS011;27206;47.032;15.484;2023-07-30T11:53:55;1.45;;;0.80;;
41468;SDS011;27206;47.032;15.484;2023-07-30T11:56:23;1.58;;;0.90;;
41468;SDS011;27206;47.032;15.484;2023-07-30T11:58:50;1.27;;;0.93;;
41468;SDS011;27206;47.032;15.484;2023-07-30T12:01:17;1.90;;;0.90;;
41468;SDS011;27206;47.032;15.484;2023-07-30T12:03:43;1.85;;;0.90;;
41468;SDS011;27206;47.032;15.484;2023-07-30T12:06:10;1.35;;;0.90;;
41468;SDS011;27206;47.032;15.484;2023-07-30T12:08:36;1.90;;;0.90;;
41468;SDS011;27206;47.032;15.484;2023-07-30T12:11:03;2.75;;;1.05;;
41468;SDS011;27206;47.032;15.484;2023-07-30T12:13:32;1.42;;;0.80;;
41468;SDS011;27206;47.032;15.484;2023-07-30T12:15:58;3.58;;;1.10;;
41468;SDS011;27206;47.032;15.484;2023-07-30T12:18:25;1.48;;;0.88;;
41468;SDS011;27206;47.032;15.484;2023-07-30T12:20:51;1.45;;;0.95;;
41468;SDS011;27206;47.032;15.484;2023-07-30T12:23:18;1.48;;;0.80;;
41468;SDS011;27206;47.032;15.484;2023-07-30T12:25:45;1.15;;;0.82;;
41468;SDS011;27206;47.032;15.484;2023-07-30T12:28:11;2.00;;;0.93;;
41468;SDS011;27206;47.032;15.484;2023-07-30T12:30:37;1.52;;;0.90;;
41468;SDS011;27206;47.032;15.484;2023-07-30T12:33:03;1.80;;;0.65;;
41468;SDS011;27206;47.032;15.484;2023-07-30T12:35:30;1.38;;;0.90;;
41468;SDS011;27206;47.032;15.484;2023-07-30T12:37:57;1.77;;;1.02;;
41468;SDS011;27206;47.032;15.484;2023-07-30T12:40:23;1.60;;;0.95;;
41468;SDS011;27206;47.032;15.484;2023-07-30T12:42:49;1.80;;;1.00;;
41468;SDS011;27206;47.032;15.484;2023-07-30T12:45:14;1.52;;;0.80;;
41468;SDS011;27206;47.032;15.484;2023-07-30T12:47:40;1.65;;;0.80;;
41468;SDS011;27206;47.032;15.484;2023-07-30T12:50:06;1.67;;;1.00;;
41468;SDS011;27206;47.032;15.484;2023-07-30T12:52:32;1.23;;;0.93;;
41468;SDS011;27206;47.032;15.484;2023-07-30T12:54:58;1.25;;;0.80;;
41468;SDS011;27206;47.032;15.484;2023-07-30T12:57:25;2.00;;;0.90;;
41468;SDS011;27206;47.032;15.484;2023-07-30T12:59:50;1.85;;;0.98;;
41468;SDS011;27206;47.032;15.484;2023-07-30T13:02:16;1.42;;;0.85;;
41468;SDS011;27206;47.032;15.484;2023-07-30T13:04:41;2.00;;;0.98;;
41468;SDS011;27206;47.032;15.484;2023-07-30T13:07:07;1.45;;;0.80;;
41468;SDS011;27206;47.032;15.484;2023-07-30T13:09:33;2.97;;;0.80;;
41468;SDS011;27206;47.032;15.484;2023-07-30T13:11:58;2.08;;;0.90;;
41468;SDS011;27206;47.032;15.484;2023-07-30T13:14:24;1.55;;;0.90;;
41468;SDS011;27206;47.032;15.484;2023-07-30T13:16:50;1.00;;;0.70;;
41468;SDS011;27206;47.032;15.484;2023-07-30T13:19:15;1.13;;;0.73;;
41468;SDS011;27206;47.032;15.484;2023-07-30T13:21:41;1.38;;;0.90;;
41468;SDS011;27206;47.032;15.484;2023-07-30T13:24:06;1.00;;;0.80;;
41468;SDS011;27206;47.032;15.484;2023-07-30T13:26:32;1.30;;;0.90;;
41468;SDS011;27206;47.032;15.484;2023-07-30T13:28:58;1.40;;;0.90;;
41468;SDS011;27206;47.032;15.484;2023-07-30T13:31:23;1.77;;;0.90;;
41468;SDS011;27206;47.032;15.484;2023-07-30T13:33:49;1.15;;;0.88;;
41468;SDS011;27206;47.032;15.484;2023-07-30T13:36:16;1.98;;;0.95;;
41468;SDS011;27206;47.032;15.484;2023-07-30T13:38:41;1.60;;;0.80;;
41468;SDS011;27206;47.032;15.484;2023-07-30T13:41:08;1.88;;;0.93;;
41468;SDS011;27206;47.032;15.484;2023-07-30T13:43:34;1.27;;;0.82;;
41468;SDS011;27206;47.032;15.484;2023-07-30T13:46:00;1.17;;;0.85;;
41468;SDS011;27206;47.032;15.484;2023-07-30T13:48:26;1.55;;;1.00;;
41468;SDS011;27206;47.032;15.484;2023-07-30T13:50:52;1.90;;;0.95;;
41468;SDS011;27206;47.032;15.484;2023-07-30T13:53:17;1.10;;;0.80;;
41468;SDS011;27206;47.032;15.484;2023-07-30T13:55:43;1.65;;;1.00;;
41468;SDS011;27206;47.032;15.484;2023-07-30T13:58:09;1.48;;;0.90;;
41468;SDS011;27206;47.032;15.484;2023-07-30T14:00:35;1.70;;;0.90;;
41468;SDS011;27206;47.032;15.484;2023-07-30T14:03:01;2.78;;;0.90;;
41468;SDS011;27206;47.032;15.484;2023-07-30T14:05:27;1.60;;;0.93;;
41468;SDS011;27206;47.032;15.484;2023-07-30T14:07:53;1.75;;;0.90;;
41468;SDS011;27206;47.032;15.484;2023-07-30T14:10:22;1.50;;;0.90;;
41468;SDS011;27206;47.032;15.484;2023-07-30T14:12:49;1.60;;;0.90;;
41468;SDS011;27206;47.032;15.484;2023-07-30T14:15:14;1.85;;;0.75;;
41468;SDS011;27206;47.032;15.484;2023-07-30T14:17:41;1.50;;;0.80;;
41468;SDS011;27206;47.032;15.484;2023-07-30T14:20:07;1.73;;;1.00;;
41468;SDS011;27206;47.032;15.484;2023-07-30T14:22:33;1.25;;;0.82;;
41468;SDS011;27206;47.032;15.484;2023-07-30T14:24:59;1.67;;;1.00;;
41468;SDS011;27206;47.032;15.484;2023-07-30T14:27:25;1.42;;;0.95;;
41468;SDS011;27206;47.032;15.484;2023-07-30T14:29:50;1.17;;;0.77;;
41468;SDS011;27206;47.032;15.484;2023-07-30T14:32:17;1.55;;;1.00;;
41468;SDS011;27206;47.032;15.484;2023-07-30T14:34:45;1.48;;;0.95;;